Sea's The Dream — WDG5070 — position and weather

sailwx.info

Track history (hours):
 
Tides and Currents Weather Stations Pressure Air Temp Water Temp Dewpoint Dewpoint Depression Visibility Wind Speed Wind Dir Waves Ship Positions

Sea's The Dream

Owner: Sail Your Way Cruises, LLC, Boise, ID. More information available from US FCC via Universal Licensing System.

Last reported at 2017-Oct-12 07:59 UTC. Time now 2017-Oct-20 01:12 UTC.
Position N 48°45' W 122°30'.

Length 14 m.

Type: Pleasure craft. MMSI: 367542970.

Date/timePositionNaut miles runAvg speedWind from/ knotsBaromVisibWave heightAir tempDewpointWater temp
2017-Oct-12 07:59N 48°45' W 122°30'  
2017-Oct-06 17:38N 48°45' W 122°30'1 1.9
2017-Oct-06 17:18N 48°45' W 122°31'3 5.2
2017-Oct-06 16:43N 48°42' W 122°32'4 3.7
2017-Oct-06 15:32N 48°38' W 122°36'0 6.0
2017-Oct-06 15:30N 48°38' W 122°36'3 5.5
2017-Oct-06 15:00N 48°36' W 122°39'2 0.1
2017-Oct-05 22:24N 48°36' W 122°42'2 5.9
2017-Oct-05 21:59N 48°36' W 122°45'3 6.4
2017-Oct-05 21:30N 48°36' W 122°50'3 6.1
2017-Oct-05 21:00N 48°39' W 122°52'0 0.1
2017-Oct-05 20:23N 48°39' W 122°52'0 0.0
2017-Oct-05 20:00N 48°39' W 122°52'0 0.0
2017-Oct-05 19:30N 48°39' W 122°52'0 0.0
2017-Oct-05 17:15N 48°39' W 122°52'0 0.0
2017-Oct-05 16:51N 48°39' W 122°52'0 0.0
2017-Oct-05 15:21N 48°39' W 122°52'0 0.0
2017-Oct-05 14:54N 48°39' W 122°52'0 0.0
2017-Oct-05 14:18N 48°39' W 122°52'0 0.0
2017-Oct-05 13:51N 48°39' W 122°52'0 0.0
2017-Oct-05 13:18N 48°39' W 122°52'0 0.0
2017-Oct-05 13:00N 48°39' W 122°52'0 0.0
2017-Oct-05 12:21N 48°39' W 122°52'0 0.0
2017-Oct-05 11:51N 48°39' W 122°52'0 0.0
2017-Oct-05 11:15N 48°39' W 122°52'0 0.0
2017-Oct-05 10:51N 48°39' W 122°52'0 0.0
2017-Oct-05 10:21N 48°39' W 122°52'0 0.0
2017-Oct-05 03:54N 48°39' W 122°52'0 0.0
2017-Oct-05 03:30N 48°39' W 122°52'0 0.0
2017-Oct-05 02:00N 48°39' W 122°52'0 0.0
2017-Oct-05 00:51N 48°39' W 122°52'0 0.0
2017-Oct-04 23:09N 48°39' W 122°52'0 0.0
2017-Oct-04 22:59N 48°39' W 122°52'0 0.0
2017-Oct-04 22:24N 48°39' W 122°52'0 0.0
2017-Oct-04 21:54N 48°39' W 122°52'1 1.3
2017-Oct-04 21:30N 48°39' W 122°53'1 1.6
2017-Oct-04 21:00N 48°39' W 122°54'1 1.0
2017-Oct-04 20:29N 48°40' W 122°54'1 1.5
2017-Oct-04 19:54N 48°39' W 122°53'1 2.9
2017-Oct-04 19:30N 48°38' W 122°52'2 3.1
2017-Oct-04 19:00N 48°37' W 122°51'2 4.0
2017-Oct-04 18:30N 48°35' W 122°51'2 4.4
2017-Oct-04 18:00N 48°33' W 122°51'0 0.5
2017-Oct-04 17:29N 48°32' W 122°51'0 0.0
2017-Oct-04 16:59N 48°32' W 122°51'0 0.0
2017-Oct-04 16:29N 48°32' W 122°51'0 0.0
2017-Oct-04 15:53N 48°32' W 122°51'0 0.0
2017-Oct-04 15:29N 48°32' W 122°51'0 0.1
2017-Oct-04 14:59N 48°32' W 122°51'0 0.0
2017-Oct-04 14:29N 48°32' W 122°51'0 0.0
2017-Oct-04 13:56N 48°32' W 122°51'0 0.0
2017-Oct-04 13:29N 48°32' W 122°51'0 0.0
2017-Oct-04 12:59N 48°32' W 122°51'0 0.0
2017-Oct-04 12:20N 48°32' W 122°51'0 0.0
2017-Oct-04 11:56N 48°32' W 122°51'0 0.0
2017-Oct-04 11:29N 48°32' W 122°51'0 0.0
2017-Oct-04 10:56N 48°32' W 122°51'0 0.0
2017-Oct-04 10:29N 48°32' W 122°51'0 0.0
2017-Oct-04 09:50N 48°32' W 122°51'0 0.0
2017-Oct-04 09:29N 48°32' W 122°51'0 0.0
2017-Oct-04 08:59N 48°32' W 122°51'0 0.0
2017-Oct-04 08:29N 48°32' W 122°51'0 0.0
2017-Oct-04 07:59N 48°32' W 122°51'0 0.1
2017-Oct-04 07:23N 48°32' W 122°51'0 0.1
2017-Oct-04 06:59N 48°32' W 122°51'0 0.0
2017-Oct-04 06:29N 48°32' W 122°51'0 0.0
2017-Oct-04 05:53N 48°32' W 122°51'0 0.0
2017-Oct-04 05:29N 48°32' W 122°51'0 0.0
2017-Oct-04 04:56N 48°32' W 122°51'0 0.0
2017-Oct-04 04:29N 48°32' W 122°51'0 0.1
2017-Oct-04 03:53N 48°32' W 122°51'0 0.0
2017-Oct-04 03:29N 48°32' W 122°51'0 0.0
2017-Oct-04 02:59N 48°32' W 122°51'0 0.1
2017-Oct-04 02:29N 48°32' W 122°51'0 0.1
2017-Oct-04 01:59N 48°32' W 122°51'0 0.1
2017-Oct-04 01:29N 48°32' W 122°51'0 0.0
2017-Oct-04 00:59N 48°32' W 122°51'0 0.0
2017-Oct-04 00:26N 48°32' W 122°51'0 0.0
2017-Oct-03 23:59N 48°32' W 122°51'0 0.0
2017-Oct-03 23:29N 48°32' W 122°51'1 1.2
2017-Oct-03 23:00N 48°33' W 122°52'2 3.9
2017-Oct-03 22:30N 48°34' W 122°54'2 4.6
2017-Oct-03 22:00N 48°32' W 122°56'3 5.0
2017-Oct-03 21:30N 48°30' W 122°57'4 7.1
2017-Oct-03 21:00N 48°26' W 122°58'2 4.8
2017-Oct-03 20:30N 48°27' W 123°01'3 5.2
2017-Oct-03 20:00N 48°28' W 123°05'2 3.9
2017-Oct-03 19:30N 48°29' W 123°08'2 3.6
2017-Oct-03 19:00N 48°30' W 123°09'2 4.3
2017-Oct-03 18:30N 48°32' W 123°10'2 4.5
2017-Oct-03 18:00N 48°34' W 123°12'2 2.9
2017-Oct-03 17:28N 48°36' W 123°10'1 3.0
2017-Oct-03 17:00N 48°37' W 123°09'0 0.3
2017-Oct-03 16:30N 48°37' W 123°09'0 0.2
2017-Oct-03 15:59N 48°37' W 123°09'0 0.0
2017-Oct-03 15:20N 48°37' W 123°09'0 0.0
2017-Oct-03 14:56N 48°37' W 123°09'0 0.0
2017-Oct-03 13:59N 48°37' W 123°09'0 0.0
2017-Oct-03 13:29N 48°37' W 123°09'0 0.0
2017-Oct-03 12:59N 48°37' W 123°09'0 0.0
2017-Oct-03 12:26N 48°37' W 123°09'0 0.0
2017-Oct-03 11:59N 48°37' W 123°09'0 0.0
2017-Oct-03 11:29N 48°37' W 123°09'0 0.0
2017-Oct-03 10:56N 48°37' W 123°09'0 0.0
2017-Oct-03 10:29N 48°37' W 123°09'0 0.0
2017-Oct-03 09:53N 48°37' W 123°09'0 0.0
2017-Oct-03 09:29N 48°37' W 123°09'0 0.0
2017-Oct-03 08:59N 48°37' W 123°09'0 0.0
2017-Oct-03 08:29N 48°37' W 123°09'0 0.0
2017-Oct-03 07:56N 48°37' W 123°09'0 0.0
2017-Oct-03 07:29N 48°37' W 123°09'0 0.0
2017-Oct-03 06:53N 48°37' W 123°09'0 0.0
2017-Oct-03 06:20N 48°37' W 123°09'0 0.0
2017-Oct-03 05:59N 48°37' W 123°09'0 0.0
2017-Oct-03 05:29N 48°37' W 123°09'0 0.0
2017-Oct-03 04:56N 48°37' W 123°09'0 0.0
2017-Oct-03 03:44N 48°37' W 123°09'0 0.0
2017-Oct-03 03:23N 48°37' W 123°09'0 0.0
2017-Oct-03 01:41N 48°37' W 123°09'0 0.0
2017-Oct-03 01:26N 48°37' W 123°09'0 0.0
2017-Oct-03 00:53N 48°37' W 123°09'0 0.0
2017-Oct-03 00:29N 48°37' W 123°09'0 0.0
2017-Oct-02 23:11N 48°37' W 123°09'0 0.2
2017-Oct-02 22:57N 48°37' W 123°09'1 2.4
2017-Oct-02 22:30N 48°37' W 123°10'2 3.8
2017-Oct-02 21:57N 48°39' W 123°12'0 0.2
2017-Oct-02 21:30N 48°39' W 123°12'0 0.6
2017-Oct-02 20:59N 48°39' W 123°12'0 0.4
2017-Oct-02 20:28N 48°39' W 123°12'1 1.2
2017-Oct-02 20:00N 48°39' W 123°13'0 0.3
2017-Oct-02 19:28N 48°39' W 123°13'1 1.1
2017-Oct-02 19:00N 48°39' W 123°13'1 2.0
2017-Oct-02 18:27N 48°39' W 123°11'  
Track history (hours):
 
Tides and Currents Weather Stations Pressure Air Temp Water Temp Dewpoint Dewpoint Depression Visibility Wind Speed Wind Dir Waves Ship Positions

Sea's The Dream

Owner: Sail Your Way Cruises, LLC, Boise, ID. More information available from US FCC via Universal Licensing System.

Last reported at 2017-Oct-12 07:59 UTC. Time now 2017-Oct-20 01:12 UTC.
Position N 48°45' W 122°30'.

Length 14 m.

Type: Pleasure craft. MMSI: 367542970.

Date/timePositionNaut miles runAvg speedWind from/ knotsBaromVisibWave heightAir tempDewpointWater temp
2017-Oct-12 07:59N 48°45' W 122°30'  
2017-Oct-06 17:38N 48°45' W 122°30'1 1.9
2017-Oct-06 17:18N 48°45' W 122°31'3 5.2
2017-Oct-06 16:43N 48°42' W 122°32'4 3.7
2017-Oct-06 15:32N 48°38' W 122°36'0 6.0
2017-Oct-06 15:30N 48°38' W 122°36'3 5.5
2017-Oct-06 15:00N 48°36' W 122°39'2 0.1
2017-Oct-05 22:24N 48°36' W 122°42'2 5.9
2017-Oct-05 21:59N 48°36' W 122°45'3 6.4
2017-Oct-05 21:30N 48°36' W 122°50'3 6.1
2017-Oct-05 21:00N 48°39' W 122°52'0 0.1
2017-Oct-05 20:23N 48°39' W 122°52'0 0.0
2017-Oct-05 20:00N 48°39' W 122°52'0 0.0
2017-Oct-05 19:30N 48°39' W 122°52'0 0.0
2017-Oct-05 17:15N 48°39' W 122°52'0 0.0
2017-Oct-05 16:51N 48°39' W 122°52'0 0.0
2017-Oct-05 15:21N 48°39' W 122°52'0 0.0
2017-Oct-05 14:54N 48°39' W 122°52'0 0.0
2017-Oct-05 14:18N 48°39' W 122°52'0 0.0
2017-Oct-05 13:51N 48°39' W 122°52'0 0.0
2017-Oct-05 13:18N 48°39' W 122°52'0 0.0
2017-Oct-05 13:00N 48°39' W 122°52'0 0.0
2017-Oct-05 12:21N 48°39' W 122°52'0 0.0
2017-Oct-05 11:51N 48°39' W 122°52'0 0.0
2017-Oct-05 11:15N 48°39' W 122°52'0 0.0
2017-Oct-05 10:51N 48°39' W 122°52'0 0.0
2017-Oct-05 10:21N 48°39' W 122°52'0 0.0
2017-Oct-05 03:54N 48°39' W 122°52'0 0.0
2017-Oct-05 03:30N 48°39' W 122°52'0 0.0
2017-Oct-05 02:00N 48°39' W 122°52'0 0.0
2017-Oct-05 00:51N 48°39' W 122°52'0 0.0
2017-Oct-04 23:09N 48°39' W 122°52'0 0.0
2017-Oct-04 22:59N 48°39' W 122°52'0 0.0
2017-Oct-04 22:24N 48°39' W 122°52'0 0.0
2017-Oct-04 21:54N 48°39' W 122°52'1 1.3
2017-Oct-04 21:30N 48°39' W 122°53'1 1.6
2017-Oct-04 21:00N 48°39' W 122°54'1 1.0
2017-Oct-04 20:29N 48°40' W 122°54'1 1.5
2017-Oct-04 19:54N 48°39' W 122°53'1 2.9
2017-Oct-04 19:30N 48°38' W 122°52'2 3.1
2017-Oct-04 19:00N 48°37' W 122°51'2 4.0
2017-Oct-04 18:30N 48°35' W 122°51'2 4.4
2017-Oct-04 18:00N 48°33' W 122°51'0 0.5
2017-Oct-04 17:29N 48°32' W 122°51'0 0.0
2017-Oct-04 16:59N 48°32' W 122°51'0 0.0
2017-Oct-04 16:29N 48°32' W 122°51'0 0.0
2017-Oct-04 15:53N 48°32' W 122°51'0 0.0
2017-Oct-04 15:29N 48°32' W 122°51'0 0.1
2017-Oct-04 14:59N 48°32' W 122°51'0 0.0
2017-Oct-04 14:29N 48°32' W 122°51'0 0.0
2017-Oct-04 13:56N 48°32' W 122°51'0 0.0
2017-Oct-04 13:29N 48°32' W 122°51'0 0.0
2017-Oct-04 12:59N 48°32' W 122°51'0 0.0
2017-Oct-04 12:20N 48°32' W 122°51'0 0.0
2017-Oct-04 11:56N 48°32' W 122°51'0 0.0
2017-Oct-04 11:29N 48°32' W 122°51'0 0.0
2017-Oct-04 10:56N 48°32' W 122°51'0 0.0
2017-Oct-04 10:29N 48°32' W 122°51'0 0.0
2017-Oct-04 09:50N 48°32' W 122°51'0 0.0
2017-Oct-04 09:29N 48°32' W 122°51'0 0.0
2017-Oct-04 08:59N 48°32' W 122°51'0 0.0
2017-Oct-04 08:29N 48°32' W 122°51'0 0.0
2017-Oct-04 07:59N 48°32' W 122°51'0 0.1
2017-Oct-04 07:23N 48°32' W 122°51'0 0.1
2017-Oct-04 06:59N 48°32' W 122°51'0 0.0
2017-Oct-04 06:29N 48°32' W 122°51'0 0.0
2017-Oct-04 05:53N 48°32' W 122°51'0 0.0
2017-Oct-04 05:29N 48°32' W 122°51'0 0.0
2017-Oct-04 04:56N 48°32' W 122°51'0 0.0
2017-Oct-04 04:29N 48°32' W 122°51'0 0.1
2017-Oct-04 03:53N 48°32' W 122°51'0 0.0
2017-Oct-04 03:29N 48°32' W 122°51'0 0.0
2017-Oct-04 02:59N 48°32' W 122°51'0 0.1
2017-Oct-04 02:29N 48°32' W 122°51'0 0.1
2017-Oct-04 01:59N 48°32' W 122°51'0 0.1
2017-Oct-04 01:29N 48°32' W 122°51'0 0.0
2017-Oct-04 00:59N 48°32' W 122°51'0 0.0
2017-Oct-04 00:26N 48°32' W 122°51'0 0.0
2017-Oct-03 23:59N 48°32' W 122°51'0 0.0
2017-Oct-03 23:29N 48°32' W 122°51'1 1.2
2017-Oct-03 23:00N 48°33' W 122°52'2 3.9
2017-Oct-03 22:30N 48°34' W 122°54'2 4.6
2017-Oct-03 22:00N 48°32' W 122°56'3 5.0
2017-Oct-03 21:30N 48°30' W 122°57'4 7.1
2017-Oct-03 21:00N 48°26' W 122°58'2 4.8
2017-Oct-03 20:30N 48°27' W 123°01'3 5.2
2017-Oct-03 20:00N 48°28' W 123°05'2 3.9
2017-Oct-03 19:30N 48°29' W 123°08'2 3.6
2017-Oct-03 19:00N 48°30' W 123°09'2 4.3
2017-Oct-03 18:30N 48°32' W 123°10'2 4.5
2017-Oct-03 18:00N 48°34' W 123°12'2 2.9
2017-Oct-03 17:28N 48°36' W 123°10'1 3.0
2017-Oct-03 17:00N 48°37' W 123°09'0 0.3
2017-Oct-03 16:30N 48°37' W 123°09'0 0.2
2017-Oct-03 15:59N 48°37' W 123°09'0 0.0
2017-Oct-03 15:20N 48°37' W 123°09'0 0.0
2017-Oct-03 14:56N 48°37' W 123°09'0 0.0
2017-Oct-03 13:59N 48°37' W 123°09'0 0.0
2017-Oct-03 13:29N 48°37' W 123°09'0 0.0
2017-Oct-03 12:59N 48°37' W 123°09'0 0.0
2017-Oct-03 12:26N 48°37' W 123°09'0 0.0
2017-Oct-03 11:59N 48°37' W 123°09'0 0.0
2017-Oct-03 11:29N 48°37' W 123°09'0 0.0
2017-Oct-03 10:56N 48°37' W 123°09'0 0.0
2017-Oct-03 10:29N 48°37' W 123°09'0 0.0
2017-Oct-03 09:53N 48°37' W 123°09'0 0.0
2017-Oct-03 09:29N 48°37' W 123°09'0 0.0
2017-Oct-03 08:59N 48°37' W 123°09'0 0.0
2017-Oct-03 08:29N 48°37' W 123°09'0 0.0
2017-Oct-03 07:56N 48°37' W 123°09'0 0.0
2017-Oct-03 07:29N 48°37' W 123°09'0 0.0
2017-Oct-03 06:53N 48°37' W 123°09'0 0.0
2017-Oct-03 06:20N 48°37' W 123°09'0 0.0
2017-Oct-03 05:59N 48°37' W 123°09'0 0.0
2017-Oct-03 05:29N 48°37' W 123°09'0 0.0
2017-Oct-03 04:56N 48°37' W 123°09'0 0.0
2017-Oct-03 03:44N 48°37' W 123°09'0 0.0
2017-Oct-03 03:23N 48°37' W 123°09'0 0.0
2017-Oct-03 01:41N 48°37' W 123°09'0 0.0
2017-Oct-03 01:26N 48°37' W 123°09'0 0.0
2017-Oct-03 00:53N 48°37' W 123°09'0 0.0
2017-Oct-03 00:29N 48°37' W 123°09'0 0.0
2017-Oct-02 23:11N 48°37' W 123°09'0 0.2
2017-Oct-02 22:57N 48°37' W 123°09'1 2.4
2017-Oct-02 22:30N 48°37' W 123°10'2 3.8
2017-Oct-02 21:57N 48°39' W 123°12'0 0.2
2017-Oct-02 21:30N 48°39' W 123°12'0 0.6
2017-Oct-02 20:59N 48°39' W 123°12'0 0.4
2017-Oct-02 20:28N 48°39' W 123°12'1 1.2
2017-Oct-02 20:00N 48°39' W 123°13'0 0.3
2017-Oct-02 19:28N 48°39' W 123°13'1 1.1
2017-Oct-02 19:00N 48°39' W 123°13'1 2.0
2017-Oct-02 18:27N 48°39' W 123°11'  

Dump ship's entire track history